createdAt,value
2022-09-23T00:00:47.638Z,7.44
2022-09-23T00:03:16.151Z,7.51
2022-09-23T00:05:43.262Z,7.66
2022-09-23T00:08:11.707Z,7.68
2022-09-23T00:10:39.800Z,7.80
2022-09-23T00:13:06.874Z,7.91
2022-09-23T00:15:39.017Z,7.83
2022-09-23T00:18:05.906Z,7.94
2022-09-23T00:20:36.416Z,8.01
2022-09-23T00:23:03.840Z,8.04
2022-09-23T00:25:30.551Z,7.94
2022-09-23T00:27:57.398Z,7.84
2022-09-23T00:30:24.146Z,7.73
2022-09-23T00:32:52.940Z,7.80
2022-09-23T00:35:20.195Z,7.77
2022-09-23T00:37:46.973Z,7.78
2022-09-23T00:40:13.926Z,7.70
2022-09-23T00:42:49.152Z,7.69
2022-09-23T00:45:16.824Z,7.68
2022-09-23T00:48:01.476Z,7.74
2022-09-23T00:50:36.495Z,7.74
2022-09-23T00:53:07.036Z,7.71
2022-09-23T00:55:55.355Z,7.72
2022-09-23T00:58:31.287Z,7.50
2022-09-23T01:01:02.330Z,7.41
2022-09-23T01:03:29.357Z,7.47
2022-09-23T01:05:57.334Z,7.48
2022-09-23T01:08:26.774Z,7.54
2022-09-23T01:11:24.411Z,7.53
2022-09-23T01:13:51.116Z,7.47
2022-09-23T01:16:34.201Z,7.44
2022-09-23T01:19:23.642Z,7.44
2022-09-23T01:22:04.974Z,7.42
2022-09-23T01:25:01.177Z,7.30
2022-09-23T01:27:52.860Z,7.27
2022-09-23T01:30:45.511Z,7.24
2022-09-23T01:33:30.547Z,7.31
2022-09-23T01:36:12.382Z,7.31
2022-09-23T01:38:46.575Z,7.35
2022-09-23T01:41:25.340Z,7.28
2022-09-23T01:44:10.501Z,7.17
2022-09-23T01:46:48.443Z,7.22
2022-09-23T01:49:44.633Z,7.22
2022-09-23T01:52:38.375Z,7.14
2022-09-23T01:55:13.368Z,7.12
2022-09-23T01:58:04.926Z,7.19
2022-09-23T02:00:36.760Z,7.05
2022-09-23T02:03:44.343Z,7.11
2022-09-23T02:06:38.988Z,7.00
2022-09-23T02:09:12.623Z,6.90
2022-09-23T02:11:45.231Z,6.90
2022-09-23T02:14:33.499Z,6.88
2022-09-23T02:17:08.510Z,6.88
2022-09-23T02:19:48.996Z,6.76
2022-09-23T02:22:21.495Z,6.76
2022-09-23T02:24:49.264Z,6.74
2022-09-23T02:27:57.629Z,6.71
2022-09-23T02:30:30.074Z,6.58
2022-09-23T02:33:07.863Z,6.61
2022-09-23T02:36:03.884Z,6.61
2022-09-23T02:38:39.358Z,6.69
2022-09-23T02:41:22.509Z,6.75
2022-09-23T02:43:59.924Z,6.79
2022-09-23T02:46:28.367Z,6.84
2022-09-23T02:49:00.939Z,6.87
2022-09-23T02:51:34.600Z,6.75
2022-09-23T02:54:03.538Z,6.81
2022-09-23T02:56:30.206Z,6.82
2022-09-23T02:58:57.061Z,6.82
2022-09-23T03:01:39.315Z,6.84
2022-09-23T03:04:27.067Z,6.80
2022-09-23T03:07:18.027Z,6.68
2022-09-23T03:10:09.837Z,6.66
2022-09-23T03:12:47.749Z,6.62
2022-09-23T03:15:32.198Z,6.62
2022-09-23T03:18:01.974Z,6.45
2022-09-23T03:20:38.475Z,6.53
2022-09-23T03:23:09.280Z,6.65
2022-09-23T03:25:40.188Z,6.64
2022-09-23T03:28:08.761Z,6.70
2022-09-23T03:30:36.776Z,6.72
2022-09-23T03:33:07.077Z,6.73
2022-09-23T03:35:58.313Z,6.73
2022-09-23T03:38:30.348Z,6.74
2022-09-23T03:41:02.934Z,6.76
2022-09-23T03:43:31.209Z,6.78
2022-09-23T03:45:58.952Z,6.67
2022-09-23T03:48:25.794Z,6.57
2022-09-23T03:50:52.607Z,6.61
2022-09-23T03:53:21.085Z,6.52
2022-09-23T03:55:48.340Z,6.50
2022-09-23T03:58:15.939Z,6.44
2022-09-23T04:00:43.324Z,6.53
2022-09-23T04:03:11.841Z,6.51
2022-09-23T04:05:38.765Z,6.42
2022-09-23T04:08:05.594Z,6.39
2022-09-23T04:10:32.227Z,6.36
2022-09-23T04:12:58.877Z,6.39
2022-09-23T04:15:25.577Z,6.33
2022-09-23T04:17:52.297Z,6.16
2022-09-23T04:20:19.336Z,6.14
2022-09-23T04:22:46.058Z,6.18
2022-09-23T04:25:12.828Z,6.15
2022-09-23T04:27:39.529Z,6.15
2022-09-23T04:30:07.084Z,6.10
2022-09-23T04:32:33.970Z,6.11
2022-09-23T04:35:00.680Z,6.07
2022-09-23T04:37:27.532Z,6.12
2022-09-23T04:39:54.503Z,6.09
2022-09-23T04:42:21.245Z,6.16
2022-09-23T04:44:47.912Z,6.15
2022-09-23T04:47:14.595Z,6.25
2022-09-23T04:49:41.240Z,6.20
2022-09-23T04:52:08.197Z,6.14
2022-09-23T04:54:34.968Z,6.15
2022-09-23T04:57:01.752Z,6.19
2022-09-23T04:59:28.423Z,6.16
2022-09-23T05:01:55.501Z,6.12
2022-09-23T05:04:22.853Z,6.10
2022-09-23T05:06:49.496Z,6.13
2022-09-23T05:09:17.422Z,6.15
2022-09-23T05:11:45.486Z,6.27
2022-09-23T05:14:12.333Z,6.29
2022-09-23T05:16:39.017Z,6.46
2022-09-23T05:19:06.082Z,6.44
2022-09-23T05:21:32.926Z,6.37
2022-09-23T05:24:00.860Z,6.52
2022-09-23T05:26:32.295Z,6.71
2022-09-23T05:28:59.866Z,6.78
2022-09-23T05:31:29.001Z,6.79
2022-09-23T05:33:58.718Z,6.86
2022-09-23T05:36:26.846Z,6.99
2022-09-23T05:38:54.695Z,7.05
2022-09-23T05:41:25.373Z,7.05
2022-09-23T05:43:53.669Z,7.05
2022-09-23T05:46:23.387Z,7.12
2022-09-23T05:48:50.814Z,7.15
2022-09-23T05:51:30.183Z,7.15
2022-09-23T05:54:03.003Z,7.40
2022-09-23T05:56:30.768Z,7.45
2022-09-23T05:58:59.065Z,7.50
2022-09-23T06:01:28.402Z,7.50
2022-09-23T06:03:59.740Z,7.55
2022-09-23T06:06:30.023Z,7.61
2022-09-23T06:08:58.587Z,7.69
2022-09-23T06:11:25.356Z,7.77
2022-09-23T06:13:56.997Z,7.91
2022-09-23T06:16:23.683Z,7.95
2022-09-23T06:18:50.317Z,7.91
2022-09-23T06:21:18.097Z,7.94
2022-09-23T06:23:45.843Z,8.00
2022-09-23T06:26:14.879Z,8.02
2022-09-23T06:28:52.060Z,8.17
2022-09-23T06:31:19.860Z,8.36
2022-09-23T06:33:46.962Z,8.53
2022-09-23T06:36:28.820Z,8.75
2022-09-23T06:39:02.360Z,8.84
2022-09-23T06:41:29.082Z,8.98
2022-09-23T06:43:58.060Z,9.07
2022-09-23T06:46:24.998Z,9.12
2022-09-23T06:48:51.656Z,9.27
2022-09-23T06:51:21.798Z,9.30
2022-09-23T06:53:49.904Z,9.47
2022-09-23T06:56:19.955Z,9.54
2022-09-23T06:58:46.877Z,9.68
2022-09-23T07:01:17.934Z,9.82
2022-09-23T07:03:47.283Z,9.83
2022-09-23T07:06:13.913Z,9.89
2022-09-23T07:08:44.891Z,9.90
2022-09-23T07:11:13.155Z,10.04
2022-09-23T07:13:41.506Z,10.19
2022-09-23T07:16:10.072Z,10.30
2022-09-23T07:18:37.634Z,10.37
2022-09-23T07:21:11.488Z,10.43
2022-09-23T07:23:38.859Z,10.52
2022-09-23T07:26:07.814Z,10.57
2022-09-23T07:28:37.101Z,10.74
2022-09-23T07:31:07.682Z,10.83
2022-09-23T07:33:36.448Z,10.88
2022-09-23T07:36:08.764Z,10.98
2022-09-23T07:38:37.415Z,11.13
2022-09-23T07:41:08.962Z,11.33
2022-09-23T07:43:35.993Z,11.45
2022-09-23T07:46:08.282Z,11.60
2022-09-23T07:48:37.169Z,11.76
2022-09-23T07:51:12.759Z,11.86
2022-09-23T07:53:39.663Z,12.01
2022-09-23T07:56:06.671Z,12.09
2022-09-23T07:58:34.686Z,12.19
2022-09-23T08:01:09.039Z,12.33
2022-09-23T08:03:36.409Z,12.42
2022-09-23T08:06:05.368Z,12.50
2022-09-23T08:08:32.129Z,12.58
2022-09-23T08:11:04.232Z,12.70
2022-09-23T08:13:31.007Z,12.83
2022-09-23T08:15:58.360Z,12.89
2022-09-23T08:18:25.689Z,12.97
2022-09-23T08:20:52.654Z,13.04
2022-09-23T08:23:20.466Z,13.11
2022-09-23T08:25:48.103Z,13.20
2022-09-23T08:28:18.776Z,13.30
2022-09-23T08:30:48.822Z,13.39
2022-09-23T08:33:20.937Z,13.43
2022-09-23T08:35:50.378Z,13.47
2022-09-23T08:38:17.315Z,13.49
2022-09-23T08:40:48.116Z,13.56
2022-09-23T08:43:24.364Z,13.50
2022-09-23T08:45:52.134Z,13.60
2022-09-23T08:48:30.615Z,13.67
2022-09-23T08:51:11.452Z,13.73
2022-09-23T08:53:38.771Z,13.76
2022-09-23T08:56:13.254Z,13.74
2022-09-23T08:59:01.951Z,13.93
2022-09-23T09:01:40.665Z,14.02
2022-09-23T09:04:44.761Z,14.06
2022-09-23T09:07:37.910Z,14.14
2022-09-23T09:10:19.312Z,14.18
2022-09-23T09:13:07.627Z,14.31
2022-09-23T09:15:44.041Z,14.32
2022-09-23T09:18:21.605Z,14.41
2022-09-23T09:20:57.262Z,14.51
2022-09-23T09:23:33.951Z,14.43
2022-09-23T09:26:06.009Z,14.50
2022-09-23T09:28:42.440Z,14.61
2022-09-23T09:31:28.236Z,14.63
2022-09-23T09:34:22.335Z,14.67
2022-09-23T09:37:11.466Z,14.71
2022-09-23T09:39:38.587Z,14.80
2022-09-23T09:42:06.522Z,14.78
2022-09-23T09:44:48.064Z,14.84
2022-09-23T09:47:36.070Z,14.80
2022-09-23T09:50:19.205Z,14.93
2022-09-23T09:52:45.981Z,15.01
2022-09-23T09:55:12.679Z,15.09
2022-09-23T09:57:46.394Z,15.13
2022-09-23T10:00:38.467Z,15.19
2022-09-23T10:03:14.167Z,15.22
2022-09-23T10:05:44.864Z,15.30
2022-09-23T10:08:37.706Z,15.38
2022-09-23T10:11:13.004Z,15.50
2022-09-23T10:13:39.716Z,15.56
2022-09-23T10:16:06.647Z,15.60
2022-09-23T10:18:37.452Z,15.63
2022-09-23T10:21:16.261Z,15.67
2022-09-23T10:23:45.760Z,15.69
2022-09-23T10:26:17.483Z,15.82
2022-09-23T10:28:50.562Z,15.98
2022-09-23T10:31:25.581Z,16.01
2022-09-23T10:34:00.524Z,16.11
2022-09-23T10:36:32.827Z,16.17
2022-09-23T10:39:23.665Z,16.26
2022-09-23T10:42:23.583Z,16.36
2022-09-23T10:45:38.591Z,16.43
2022-09-23T10:48:22.723Z,16.48
2022-09-23T10:50:52.967Z,16.44
2022-09-23T10:53:28.641Z,16.53
2022-09-23T10:56:09.566Z,16.61
2022-09-23T10:59:00.837Z,16.64
2022-09-23T11:01:50.789Z,16.74
2022-09-23T11:04:42.473Z,16.81
2022-09-23T11:07:37.357Z,16.85
2022-09-23T11:10:52.443Z,16.92
2022-09-23T11:13:43.225Z,17.03
2022-09-23T11:16:39.085Z,16.99
2022-09-23T11:19:18.405Z,17.20
2022-09-23T11:22:10.291Z,17.30
2022-09-23T11:25:16.915Z,17.25
2022-09-23T11:28:18.004Z,17.24
2022-09-23T11:31:00.129Z,17.21
2022-09-23T11:33:38.776Z,17.11
2022-09-23T11:36:10.658Z,17.06
2022-09-23T11:38:48.843Z,16.88
2022-09-23T11:41:25.944Z,16.95
2022-09-23T11:44:39.238Z,16.87
2022-09-23T11:47:16.676Z,16.79
2022-09-23T11:49:51.661Z,16.80
2022-09-23T11:52:45.198Z,16.72
2022-09-23T11:55:22.180Z,16.60
2022-09-23T11:58:25.771Z,16.62
2022-09-23T12:01:01.411Z,16.55
2022-09-23T12:03:44.939Z,16.44
2022-09-23T12:06:36.942Z,16.44
2022-09-23T12:09:15.572Z,16.41
2022-09-23T12:12:27.200Z,16.48
2022-09-23T12:14:54.093Z,16.47
2022-09-23T12:17:27.568Z,16.45
2022-09-23T12:20:12.036Z,16.38
2022-09-23T12:22:52.779Z,16.39
2022-09-23T12:25:52.215Z,16.39
2022-09-23T12:28:29.754Z,16.44
2022-09-23T12:31:00.319Z,16.39
2022-09-23T12:33:35.345Z,16.42
2022-09-23T12:36:05.137Z,16.45
2022-09-23T12:38:46.628Z,16.44
2022-09-23T12:41:26.894Z,16.50
2022-09-23T12:43:56.089Z,16.45
2022-09-23T12:46:27.483Z,16.50
2022-09-23T12:49:00.864Z,16.56
2022-09-23T12:51:34.818Z,16.61
2022-09-23T12:54:04.490Z,16.66
2022-09-23T12:56:34.038Z,16.81
2022-09-23T12:59:11.452Z,16.73
2022-09-23T13:01:39.047Z,17.97
2022-09-23T13:04:24.627Z,17.80
2022-09-23T13:07:08.978Z,17.38
2022-09-23T13:09:42.274Z,17.20
2022-09-23T13:12:19.660Z,17.13
2022-09-23T13:14:50.694Z,17.08
2022-09-23T13:17:37.059Z,17.06
2022-09-23T13:20:03.675Z,17.12
2022-09-23T13:22:59.923Z,17.16
2022-09-23T13:25:29.480Z,17.39
2022-09-23T13:28:00.719Z,17.22
2022-09-23T13:30:27.983Z,17.11
2022-09-23T13:33:14.167Z,17.11
2022-09-23T13:35:46.854Z,17.14
2022-09-23T13:38:29.638Z,17.15
2022-09-23T13:41:07.905Z,17.02
2022-09-23T13:43:41.502Z,16.99
2022-09-23T13:46:16.725Z,17.13
2022-09-23T13:48:46.131Z,17.14
2022-09-23T13:51:30.292Z,17.57
2022-09-23T13:53:59.384Z,18.54
2022-09-23T13:56:28.641Z,17.88
2022-09-23T13:59:16.268Z,17.55
2022-09-23T14:01:43.102Z,17.71
2022-09-23T14:04:26.100Z,19.72
2022-09-23T14:06:54.381Z,21.02
2022-09-23T14:09:24.934Z,18.94
2022-09-23T14:11:52.239Z,18.49
2022-09-23T14:14:20.638Z,18.05
2022-09-23T14:16:50.596Z,17.65
2022-09-23T14:19:19.751Z,17.37
2022-09-23T14:21:54.944Z,17.17
2022-09-23T14:24:31.808Z,17.00
2022-09-23T14:27:12.958Z,17.41
2022-09-23T14:29:45.246Z,17.05
2022-09-23T14:32:23.125Z,16.92
2022-09-23T14:35:03.611Z,16.91
2022-09-23T14:37:55.254Z,16.89
2022-09-23T14:40:28.672Z,16.83
2022-09-23T14:42:55.592Z,16.74
2022-09-23T14:45:27.202Z,16.74
2022-09-23T14:47:59.418Z,16.72
2022-09-23T14:50:47.329Z,16.79
2022-09-23T14:53:17.145Z,16.73
2022-09-23T14:55:44.799Z,16.71
2022-09-23T14:58:17.259Z,16.68
2022-09-23T15:01:02.865Z,16.58
2022-09-23T15:03:29.912Z,16.51
2022-09-23T15:06:06.385Z,16.36
2022-09-23T15:08:36.013Z,16.25
2022-09-23T15:11:07.829Z,16.14
2022-09-23T15:13:45.871Z,16.05
2022-09-23T15:16:15.932Z,15.96
2022-09-23T15:18:46.331Z,15.86
2022-09-23T15:21:16.632Z,15.78
2022-09-23T15:23:43.370Z,15.71
2022-09-23T15:26:25.041Z,15.67
2022-09-23T15:28:54.138Z,15.61
2022-09-23T15:31:23.048Z,15.59
2022-09-23T15:33:51.192Z,15.58
2022-09-23T15:36:21.214Z,15.57
2022-09-23T15:38:48.480Z,15.53
2022-09-23T15:41:15.873Z,15.50
2022-09-23T15:43:42.942Z,15.56
2022-09-23T15:46:29.927Z,15.56
2022-09-23T15:49:08.914Z,15.54
2022-09-23T15:51:37.363Z,15.57
2022-09-23T15:54:06.150Z,15.51
2022-09-23T15:56:33.456Z,15.44
2022-09-23T15:59:00.857Z,15.36
2022-09-23T16:01:30.219Z,15.30
2022-09-23T16:03:57.058Z,15.27
2022-09-23T16:06:26.945Z,15.20
2022-09-23T16:08:54.255Z,15.18
2022-09-23T16:11:29.978Z,15.11
2022-09-23T16:13:56.818Z,15.05
2022-09-23T16:16:23.773Z,14.92
2022-09-23T16:18:53.162Z,14.83
2022-09-23T16:21:26.343Z,14.81
2022-09-23T16:23:54.529Z,14.82
2022-09-23T16:26:30.761Z,14.80
2022-09-23T16:28:58.641Z,14.76
2022-09-23T16:31:29.710Z,14.71
2022-09-23T16:33:56.566Z,14.60
2022-09-23T16:36:23.249Z,14.55
2022-09-23T16:38:50.083Z,14.39
2022-09-23T16:41:16.796Z,14.26
2022-09-23T16:43:43.442Z,14.14
2022-09-23T16:46:15.699Z,14.06
2022-09-23T16:48:47.039Z,13.96
2022-09-23T16:51:20.381Z,13.82
2022-09-23T16:53:49.469Z,13.65
2022-09-23T16:56:18.332Z,13.45
2022-09-23T16:58:45.140Z,13.37
2022-09-23T17:01:33.891Z,13.10
2022-09-23T17:04:01.039Z,13.09
2022-09-23T17:06:28.009Z,12.94
2022-09-23T17:08:54.821Z,12.79
2022-09-23T17:11:22.013Z,12.68
2022-09-23T17:13:49.654Z,12.57
2022-09-23T17:16:30.792Z,12.42
2022-09-23T17:18:58.032Z,12.30
2022-09-23T17:21:27.322Z,12.28
2022-09-23T17:23:54.667Z,12.13
2022-09-23T17:26:23.357Z,12.05
2022-09-23T17:28:51.422Z,11.95
2022-09-23T17:31:18.776Z,11.87
2022-09-23T17:33:45.528Z,11.75
2022-09-23T17:36:13.655Z,11.65
2022-09-23T17:38:43.552Z,11.54
2022-09-23T17:41:10.213Z,11.49
2022-09-23T17:43:38.451Z,11.42
2022-09-23T17:46:10.862Z,11.38
2022-09-23T17:48:41.376Z,11.35
2022-09-23T17:51:14.278Z,11.33
2022-09-23T17:53:43.599Z,11.17
2022-09-23T17:56:26.334Z,11.16
2022-09-23T17:58:53.876Z,11.13
2022-09-23T18:01:25.571Z,11.03
2022-09-23T18:04:00.386Z,10.89
2022-09-23T18:06:32.532Z,10.82
2022-09-23T18:09:01.632Z,10.77
2022-09-23T18:11:29.833Z,10.65
2022-09-23T18:14:08.262Z,10.55
2022-09-23T18:16:38.057Z,10.50
2022-09-23T18:19:06.176Z,10.51
2022-09-23T18:21:40.880Z,10.49
2022-09-23T18:26:59.536Z,10.49
2022-09-23T18:29:26.303Z,10.47
2022-09-23T18:31:53.052Z,10.41
2022-09-23T18:34:20.468Z,10.36
2022-09-23T18:36:47.181Z,10.30
2022-09-23T18:39:14.276Z,10.21
2022-09-23T18:41:41.286Z,10.20
2022-09-23T18:44:08.562Z,10.14
2022-09-23T18:46:35.617Z,10.14
2022-09-23T18:49:20.953Z,10.20
2022-09-23T18:51:54.825Z,10.16
2022-09-23T18:54:23.352Z,10.10
2022-09-23T18:56:52.619Z,10.04
2022-09-23T18:59:23.737Z,10.06
2022-09-23T19:01:51.049Z,10.13
2022-09-23T19:04:20.412Z,10.19
2022-09-23T19:06:47.990Z,10.18
2022-09-23T19:09:15.866Z,9.96
2022-09-23T19:11:43.369Z,9.84
2022-09-23T19:14:11.526Z,9.77
2022-09-23T19:16:39.716Z,9.71
2022-09-23T19:19:06.746Z,9.71
2022-09-23T19:21:34.165Z,9.70
2022-09-23T19:24:04.415Z,9.82
2022-09-23T19:26:38.418Z,9.94
2022-09-23T19:29:08.163Z,10.04
2022-09-23T19:31:40.033Z,10.12
2022-09-23T19:34:11.485Z,10.15
2022-09-23T19:36:40.360Z,10.13
2022-09-23T19:39:12.050Z,10.09
2022-09-23T19:41:38.686Z,10.09
2022-09-23T19:44:07.394Z,10.10
2022-09-23T19:46:39.398Z,10.03
2022-09-23T19:49:07.165Z,10.06
2022-09-23T19:51:34.599Z,9.95
2022-09-23T19:54:03.526Z,9.89
2022-09-23T19:56:31.965Z,9.67
2022-09-23T19:58:59.758Z,9.59
2022-09-23T20:01:28.592Z,9.54
2022-09-23T20:03:55.363Z,9.49
2022-09-23T20:06:22.610Z,9.47
2022-09-23T20:08:50.074Z,9.32
2022-09-23T20:11:22.572Z,9.35
2022-09-23T20:13:58.584Z,9.19
2022-09-23T20:16:25.911Z,9.16
2022-09-23T20:18:52.890Z,9.19
2022-09-23T20:21:19.575Z,9.05
2022-09-23T20:23:46.303Z,9.02
2022-09-23T20:26:32.031Z,8.87
2022-09-23T20:29:02.377Z,8.79
2022-09-23T20:31:29.171Z,8.77
2022-09-23T20:33:58.498Z,8.70
2022-09-23T20:36:27.317Z,8.80
2022-09-23T20:38:59.706Z,8.81
2022-09-23T20:41:27.402Z,8.80
2022-09-23T20:43:55.257Z,8.84
2022-09-23T20:46:24.788Z,8.63
2022-09-23T20:48:51.549Z,8.66
2022-09-23T20:51:18.205Z,8.64
2022-09-23T20:53:45.942Z,8.63
2022-09-23T20:56:14.884Z,8.55
2022-09-23T20:58:41.472Z,8.55
2022-09-23T21:01:10.795Z,8.51
2022-09-23T21:03:40.599Z,8.46
2022-09-23T21:06:09.227Z,8.47
2022-09-23T21:08:37.387Z,8.59
2022-09-23T21:11:07.880Z,8.58
2022-09-23T21:13:34.653Z,8.52
2022-09-23T21:16:10.654Z,8.56
2022-09-23T21:18:38.748Z,8.54
2022-09-23T21:21:06.324Z,8.53
2022-09-23T21:23:35.101Z,8.51
2022-09-23T21:26:11.014Z,8.50
2022-09-23T21:28:43.225Z,8.42
2022-09-23T21:31:22.727Z,8.38
2022-09-23T21:33:59.162Z,8.30
2022-09-23T21:36:28.154Z,8.17
2022-09-23T21:38:58.230Z,8.25
2022-09-23T21:41:25.154Z,8.12
2022-09-23T21:43:51.824Z,8.12
2022-09-23T21:46:20.892Z,8.08
2022-09-23T21:48:57.420Z,8.00
2022-09-23T21:51:34.167Z,8.08
2022-09-23T21:54:01.183Z,8.03
2022-09-23T21:56:30.433Z,7.97
2022-09-23T21:58:59.881Z,7.99
2022-09-23T22:01:36.442Z,8.01
2022-09-23T22:04:13.302Z,7.98
2022-09-23T22:06:40.546Z,7.86
2022-09-23T22:09:19.132Z,7.91
2022-09-23T22:12:04.484Z,7.85
2022-09-23T22:14:31.491Z,7.76
2022-09-23T22:17:03.701Z,7.91
2022-09-23T22:19:35.537Z,7.88
2022-09-23T22:22:07.755Z,7.85
2022-09-23T22:24:34.454Z,7.86
2022-09-23T22:27:01.100Z,7.89
2022-09-23T22:29:46.352Z,7.81
2022-09-23T22:32:31.596Z,7.77
2022-09-23T22:34:58.337Z,7.81
2022-09-23T22:37:34.105Z,7.75
2022-09-23T22:40:09.560Z,7.77
2022-09-23T22:42:37.253Z,7.69
2022-09-23T22:45:05.825Z,7.62
2022-09-23T22:47:37.802Z,7.61
2022-09-23T22:50:09.755Z,7.60
2022-09-23T22:52:36.751Z,7.53
2022-09-23T22:55:04.846Z,7.59
2022-09-23T22:57:31.472Z,7.59
2022-09-23T22:59:58.192Z,7.55
2022-09-23T23:02:24.960Z,7.46
2022-09-23T23:04:51.806Z,7.46
2022-09-23T23:07:21.323Z,7.35
2022-09-23T23:09:50.479Z,7.29
2022-09-23T23:12:18.960Z,7.25
2022-09-23T23:14:46.577Z,7.19
2022-09-23T23:17:13.350Z,7.17
2022-09-23T23:19:40.098Z,7.21
2022-09-23T23:22:06.816Z,7.29
2022-09-23T23:24:33.476Z,7.14
2022-09-23T23:27:00.148Z,7.25
2022-09-23T23:29:27.918Z,6.99
2022-09-23T23:31:54.757Z,7.03
2022-09-23T23:34:22.056Z,7.14
2022-09-23T23:36:55.116Z,7.08
2022-09-23T23:39:23.891Z,7.14
2022-09-23T23:41:55.176Z,7.13
2022-09-23T23:44:23.621Z,7.09
2022-09-23T23:46:50.513Z,7.11
2022-09-23T23:49:17.440Z,7.09
2022-09-23T23:51:44.206Z,7.01
2022-09-23T23:54:15.222Z,6.95
2022-09-23T23:56:42.064Z,7.05
2022-09-23T23:59:08.682Z,7.05
